Time;durP1;ratioP1;P1;durP2;ratioP2;P2;SDS_P1;SDS_P2;PMS_P1;PMS_P2;Temp;Humidity;BMP_temperature;BMP_pressure;BME280_temperature;BME280_humidity;BME280_pressure;Samples;Min_cycle;Max_cycle;Signal;HPM_P1;HPM_P2
2023/03/22 00:00:45;;;;;;;5.78;5.38;;;;;;;11.50;87.11;94708.00;5015904;28;20918;-73
2023/03/22 00:03:12;;;;;;;6.53;6.03;;;;;;;11.47;87.36;94705.59;5015848;28;20207;-73
2023/03/22 00:05:39;;;;;;;6.85;6.35;;;;;;;11.53;87.26;94707.06;5016045;28;20306;-75
2023/03/22 00:08:07;;;;;;;8.60;6.90;;;;;;;11.48;87.31;94704.69;5016336;28;20207;-74
2023/03/22 00:10:37;;;;;;;6.88;6.38;;;;;;;11.36;87.20;94686.59;5015063;28;20344;-76
2023/03/22 00:13:04;;;;;;;7.57;6.32;;;;;;;11.46;87.12;94701.41;5015433;28;20246;-74
2023/03/22 00:15:31;;;;;;;6.97;6.47;;;;;;;11.40;87.47;94709.28;5016654;28;20200;-74
2023/03/22 00:17:58;;;;;;;7.88;7.05;;;;;;;11.45;87.37;94704.81;5016449;28;20211;-75
2023/03/22 00:20:25;;;;;;;7.40;6.90;;;;;;;11.50;87.22;94710.56;5015419;28;20208;-75
2023/03/22 00:22:52;;;;;;;6.70;6.20;;;;;;;11.55;86.68;94710.38;5016230;28;20298;-75
2023/03/22 00:25:19;;;;;;;6.93;6.43;;;;;;;11.54;86.15;94704.44;5015876;28;20667;-75
2023/03/22 00:27:47;;;;;;;6.78;6.32;;;;;;;11.62;85.41;94703.28;5016445;28;20230;-75
2023/03/22 00:30:14;;;;;;;7.72;7.03;;;;;;;11.49;85.76;94705.53;5014899;28;20876;-74
2023/03/22 00:32:42;;;;;;;7.05;6.50;;;;;;;11.47;86.01;94697.13;5016595;28;20207;-76
2023/03/22 00:35:10;;;;;;;4.88;4.60;;;;;;;11.41;86.26;94705.84;5015232;28;20208;-77
2023/03/22 00:37:37;;;;;;;6.38;5.88;;;;;;;11.44;85.63;94703.16;5015737;28;20368;-74
2023/03/22 00:40:07;;;;;;;7.40;6.63;;;;;;;11.42;85.79;94699.88;5015144;28;20239;-75
2023/03/22 00:42:34;;;;;;;7.35;6.63;;;;;;;11.38;86.40;94697.53;5014967;28;20199;-75
2023/03/22 00:45:02;;;;;;;7.22;6.63;;;;;;;11.45;86.30;94694.66;5015381;28;20231;-72
2023/03/22 00:47:29;;;;;;;7.80;7.22;;;;;;;11.48;86.50;94689.44;5015893;28;20210;-73
2023/03/22 00:49:56;;;;;;;6.45;5.93;;;;;;;11.46;86.53;94690.38;5014945;28;20629;-74
2023/03/22 00:52:23;;;;;;;7.68;6.97;;;;;;;11.36;86.73;94673.88;5015377;28;20302;-75
2023/03/22 00:54:50;;;;;;;7.32;6.72;;;;;;;11.42;87.22;94686.31;5014631;28;20215;-73
2023/03/22 00:57:17;;;;;;;7.10;6.50;;;;;;;11.43;87.10;94686.25;5015370;28;20208;-75
2023/03/22 00:59:43;;;;;;;6.85;6.20;;;;;;;11.40;87.67;94677.91;5015682;28;20211;-73
2023/03/22 01:02:13;;;;;;;6.03;5.63;;;;;;;11.42;87.53;94684.59;5016048;28;20298;-74
2023/03/22 01:04:45;;;;;;;5.55;5.25;;;;;;;11.47;87.27;94681.88;5015139;28;20229;-75
2023/03/22 01:07:16;;;;;;;5.70;5.30;;;;;;;11.45;87.30;94681.09;5014346;28;20341;-75
2023/03/22 01:09:44;;;;;;;6.35;5.85;;;;;;;11.42;87.29;94679.50;5013560;28;20235;-77
2023/03/22 01:12:11;;;;;;;5.68;5.28;;;;;;;11.43;87.23;94682.88;5014065;28;20847;-77
2023/03/22 01:14:38;;;;;;;4.95;4.65;;;;;;;11.43;87.02;94678.63;5014838;28;20273;-76
2023/03/22 01:17:06;;;;;;;6.10;5.70;;;;;;;11.44;87.45;94677.72;5014701;28;20227;-76
2023/03/22 01:19:34;;;;;;;5.70;5.25;;;;;;;11.46;86.91;94675.94;5015957;28;20800;-74
2023/03/22 01:22:01;;;;;;;5.97;5.57;;;;;;;11.35;86.88;94667.97;5015771;28;20553;-73
2023/03/22 01:24:28;;;;;;;6.00;5.60;;;;;;;11.35;86.80;94672.22;5015166;28;20254;-76
2023/03/22 01:26:54;;;;;;;5.65;5.35;;;;;;;11.36;86.51;94669.63;5014493;28;20227;-76
2023/03/22 01:29:21;;;;;;;5.93;5.50;;;;;;;11.33;86.34;94663.84;5015759;28;20208;-77
2023/03/22 01:31:48;;;;;;;6.22;5.63;;;;;;;11.28;86.49;94666.56;5014514;28;20744;-77
2023/03/22 01:34:14;;;;;;;5.90;5.50;;;;;;;11.25;86.87;94669.25;5014205;28;20259;-74
2023/03/22 01:36:43;;;;;;;6.05;5.55;;;;;;;11.44;85.75;94667.56;5014206;28;20330;-74
2023/03/22 01:39:10;;;;;;;5.20;4.80;;;;;;;11.32;86.29;94664.72;5015163;28;20301;-76
2023/03/22 01:41:37;;;;;;;6.00;5.70;;;;;;;11.25;86.67;94662.44;5013326;28;21639;-74
2023/03/22 01:44:12;;;;;;;6.30;5.80;;;;;;;11.30;86.35;94659.69;5014539;28;20295;-74
2023/03/22 01:46:39;;;;;;;5.07;4.80;;;;;;;11.35;86.48;94657.78;5013325;28;20558;-75
2023/03/22 01:49:08;;;;;;;4.93;4.50;;;;;;;11.36;86.18;94663.72;5015462;28;20370;-73
2023/03/22 01:51:35;;;;;;;5.50;4.93;;;;;;;11.37;86.17;94658.56;5014196;28;20218;-75
2023/03/22 01:54:07;;;;;;;5.68;5.28;;;;;;;11.49;85.81;94660.56;5014345;28;20235;-74
2023/03/22 01:56:38;;;;;;;4.88;4.57;;;;;;;11.32;85.82;94642.66;5014210;28;20303;-74
2023/03/22 01:59:06;;;;;;;5.53;5.13;;;;;;;11.26;86.63;94663.25;5014397;28;20238;-74
2023/03/22 02:01:34;;;;;;;5.50;5.10;;;;;;;11.22;86.85;94669.38;5014602;28;20238;-75
2023/03/22 02:04:05;;;;;;;5.45;5.05;;;;;;;11.19;87.26;94664.41;5014007;28;20217;-75
2023/03/22 02:06:36;;;;;;;11.20;5.38;;;;;;;11.20;87.15;94673.69;5014709;28;20200;-72
2023/03/22 02:09:06;;;;;;;5.35;4.90;;;;;;;11.19;87.14;94664.41;5013399;28;20212;-75
2023/03/22 02:11:37;;;;;;;5.57;5.18;;;;;;;11.19;87.28;94667.78;5013291;28;20617;-73
2023/03/22 02:14:18;;;;;;;6.25;5.75;;;;;;;11.13;87.46;94664.69;5014517;28;20749;-76
2023/03/22 02:16:58;;;;;;;6.55;5.18;;;;;;;11.10;87.52;94663.09;5014329;28;20207;-73
2023/03/22 02:20:27;;;;;;;5.43;4.80;;;;;;;11.11;87.73;94658.84;5013894;28;20282;-73
2023/03/22 02:23:22;;;;;;;5.75;5.22;;;;;;;11.10;87.33;94663.09;4951695;28;21255;-74
2023/03/22 02:26:28;;;;;;;4.57;4.28;;;;;;;11.12;87.50;94663.03;4948407;28;20308;-74
2023/03/22 02:29:07;;;;;;;4.80;4.50;;;;;;;11.06;87.77;94670.91;4994599;28;20211;-74
2023/03/22 02:31:49;;;;;;;5.57;5.28;;;;;;;11.03;87.66;94663.41;5013315;28;20204;-74
2023/03/22 02:34:46;;;;;;;5.13;4.78;;;;;;;11.01;87.92;94670.25;5012104;28;20234;-70
2023/03/22 02:37:41;;;;;;;5.03;4.72;;;;;;;11.00;87.54;94666.06;5012688;28;20239;-74
2023/03/22 02:40:15;;;;;;;4.80;4.50;;;;;;;10.96;87.93;94669.63;5013152;28;20666;-75
2023/03/22 02:42:55;;;;;;;3.95;3.65;;;;;;;10.98;87.77;94667.84;5013059;28;20318;-73
2023/03/22 02:45:29;;;;;;;4.00;3.70;;;;;;;10.94;87.67;94669.69;5012992;28;20314;-74
2023/03/22 02:48:01;;;;;;;3.97;3.78;;;;;;;10.93;87.78;94673.13;5013840;28;20203;-74
2023/03/22 02:50:32;;;;;;;3.67;3.47;;;;;;;10.91;87.71;94677.44;5014328;28;20208;-73
2023/03/22 02:53:05;;;;;;;3.60;3.40;;;;;;;10.90;87.52;94676.59;5012378;28;20250;-74
2023/03/22 02:55:38;;;;;;;4.32;4.03;;;;;;;10.97;87.56;94681.44;5013287;28;20658;-74
2023/03/22 02:58:10;;;;;;;4.00;3.60;;;;;;;11.00;87.35;94681.31;5016414;28;20289;-74
2023/03/22 03:00:38;;;;;;;3.78;3.55;;;;;;;11.03;87.46;94683.75;5017251;28;20694;-73
2023/03/22 03:03:11;;;;;;;4.10;3.80;;;;;;;11.04;87.17;94683.69;5017015;28;20720;-73
2023/03/22 03:05:42;;;;;;;3.58;3.30;;;;;;;11.03;87.19;94676.13;5016182;28;20725;-74
2023/03/22 03:08:10;;;;;;;4.05;3.72;;;;;;;11.04;87.38;94680.31;5017641;28;20223;-74
2023/03/22 03:10:40;;;;;;;3.47;3.10;;;;;;;10.95;87.40;94673.06;5016461;28;20824;-74
2023/03/22 03:13:11;;;;;;;3.90;3.60;;;;;;;10.95;87.55;94680.69;5016492;28;20663;-73
2023/03/22 03:15:41;;;;;;;3.63;3.42;;;;;;;11.01;86.89;94682.97;5017261;28;20286;-74
2023/03/22 03:18:22;;;;;;;4.35;4.05;;;;;;;10.94;86.44;94679.84;5016951;28;20208;-74
2023/03/22 03:20:59;;;;;;;3.85;3.63;;;;;;;10.92;86.64;94684.16;5016412;28;20235;-74
2023/03/22 03:23:33;;;;;;;4.28;4.07;;;;;;;10.91;86.75;94678.25;5016649;28;20207;-74
2023/03/22 03:26:07;;;;;;;3.85;3.63;;;;;;;10.93;87.05;94683.28;5016658;28;20935;-74
2023/03/22 03:28:38;;;;;;;4.03;3.72;;;;;;;10.91;87.15;94685.88;5016478;28;20235;-74
2023/03/22 03:31:18;;;;;;;4.03;3.72;;;;;;;10.97;87.26;94686.53;5016369;28;20204;-74
2023/03/22 03:33:53;;;;;;;3.92;3.55;;;;;;;10.98;87.15;94685.66;5015763;28;20703;-74
2023/03/22 03:36:22;;;;;;;4.30;4.00;;;;;;;10.98;86.75;94685.66;5016655;28;20203;-73
2023/03/22 03:38:52;;;;;;;4.43;4.13;;;;;;;10.97;86.89;94687.34;5015578;28;20224;-74
2023/03/22 03:41:24;;;;;;;4.70;4.40;;;;;;;10.96;87.26;94693.34;5017558;28;20293;-73
2023/03/22 03:43:53;;;;;;;4.15;3.85;;;;;;;10.95;86.74;94683.22;5016375;28;20817;-74
2023/03/22 03:46:20;;;;;;;3.65;3.45;;;;;;;10.98;86.78;94696.63;5015434;28;20854;-73
2023/03/22 03:48:49;;;;;;;3.28;3.08;;;;;;;10.97;86.62;94701.78;5016489;28;20292;-74
2023/03/22 03:51:16;;;;;;;3.67;3.47;;;;;;;10.94;86.93;94700.19;5016196;28;20309;-74
2023/03/22 03:53:43;;;;;;;3.20;3.10;;;;;;;10.96;86.73;94695.88;5016553;28;20815;-72
2023/03/22 03:56:10;;;;;;;3.15;3.05;;;;;;;10.97;86.61;94701.78;5016599;28;20235;-73
2023/03/22 03:58:38;;;;;;;3.15;2.95;;;;;;;11.01;86.67;94703.31;5015913;28;20212;-74
2023/03/22 04:01:05;;;;;;;3.63;2.67;;;;;;;10.96;86.01;94684.88;5016238;28;20665;-75
2023/03/22 04:03:32;;;;;;;2.53;2.42;;;;;;;11.00;86.71;94704.22;5016782;28;20574;-74
2023/03/22 04:05:59;;;;;;;2.55;2.45;;;;;;;10.98;86.80;94705.97;5016951;28;20219;-75
2023/03/22 04:08:27;;;;;;;2.75;2.65;;;;;;;11.00;86.80;94704.22;5015360;28;20297;-74
2023/03/22 04:10:53;;;;;;;2.88;2.67;;;;;;;11.00;86.85;94706.75;5016369;28;20717;-74
2023/03/22 04:13:23;;;;;;;2.70;2.60;;;;;;;10.99;87.05;94712.72;5016451;28;20215;-73
2023/03/22 04:15:56;;;;;;;2.70;2.60;;;;;;;11.00;86.87;94699.13;5016407;28;20299;-74
2023/03/22 04:18:23;;;;;;;2.13;2.03;;;;;;;10.99;86.61;94715.25;5015957;28;20208;-73
2023/03/22 04:20:52;;;;;;;3.00;2.80;;;;;;;10.95;86.64;94709.47;5016774;28;20207;-74
2023/03/22 04:23:21;;;;;;;3.15;2.90;;;;;;;10.93;86.60;94708.69;5015537;28;20604;-74
2023/03/22 04:25:49;;;;;;;2.33;2.22;;;;;;;10.94;86.30;94717.16;5016714;28;20230;-74
2023/03/22 04:28:16;;;;;;;2.42;2.33;;;;;;;10.93;86.58;94710.41;5016351;28;20619;-73
2023/03/22 04:30:44;;;;;;;3.20;2.90;;;;;;;10.91;86.46;94716.41;5016851;28;20301;-73
2023/03/22 04:33:14;;;;;;;3.25;3.05;;;;;;;10.85;86.44;94703.94;5014818;28;20287;-73
2023/03/22 04:35:40;;;;;;;3.20;3.00;;;;;;;10.87;86.67;94707.25;5015803;28;20200;-73
2023/03/22 04:38:08;;;;;;;3.05;2.85;;;;;;;10.87;86.34;94702.19;5014924;28;20709;-74
2023/03/22 04:40:37;;;;;;;2.72;2.63;;;;;;;10.84;86.41;94717.56;5015543;28;20215;-74
2023/03/22 04:43:04;;;;;;;2.97;2.88;;;;;;;10.81;86.79;94712.59;5014496;28;20207;-74
2023/03/22 04:45:33;;;;;;;3.70;3.50;;;;;;;10.88;86.67;94714.00;5015496;28;20716;-74
2023/03/22 04:48:00;;;;;;;3.72;3.42;;;;;;;10.93;86.77;94721.41;5014643;28;20207;-74
2023/03/22 04:50:28;;;;;;;3.80;3.47;;;;;;;10.98;86.70;94713.59;5015924;28;20310;-74
2023/03/22 04:52:57;;;;;;;3.97;3.67;;;;;;;10.99;86.27;94726.25;5015600;28;20298;-73
2023/03/22 04:55:26;;;;;;;4.00;3.70;;;;;;;10.97;86.70;94732.28;5015866;28;20223;-74
2023/03/22 04:57:53;;;;;;;9.52;4.10;;;;;;;10.94;86.61;94727.34;5015409;28;20355;-74
2023/03/22 05:00:20;;;;;;;4.65;4.35;;;;;;;10.98;86.70;94728.88;5015738;28;20208;-74
2023/03/22 05:02:48;;;;;;;3.78;3.58;;;;;;;11.03;86.49;94726.97;5015655;28;20258;-74
2023/03/22 05:05:15;;;;;;;2.75;2.55;;;;;;;10.98;86.42;94733.94;5014947;28;20212;-74
2023/03/22 05:07:43;;;;;;;3.80;3.50;;;;;;;11.07;86.49;94738.69;5015142;28;20203;-74
2023/03/22 05:10:10;;;;;;;3.47;3.22;;;;;;;11.08;86.12;94743.69;5015255;28;20239;-74
2023/03/22 05:12:37;;;;;;;3.83;3.55;;;;;;;11.11;86.30;94740.22;5015471;28;20235;-74
2023/03/22 05:15:06;;;;;;;3.30;3.05;;;;;;;11.13;86.35;94743.53;5015141;28;20208;-74
2023/03/22 05:17:32;;;;;;;4.97;4.45;;;;;;;11.16;86.27;94748.44;5014493;28;20211;-73
2023/03/22 05:20:07;;;;;;;7.90;6.38;;;;;;;11.18;85.91;94741.59;5015144;28;20724;-74
2023/03/22 05:22:36;;;;;;;13.73;9.20;;;;;;;11.26;85.74;94754.84;5015380;28;20634;-72
2023/03/22 05:25:05;;;;;;;5.28;4.35;;;;;;;11.25;85.93;94751.47;5014804;28;20223;-72
2023/03/22 05:27:33;;;;;;;4.35;3.92;;;;;;;11.27;85.85;94756.50;5014042;28;20674;-74
2023/03/22 05:30:00;;;;;;;3.30;3.10;;;;;;;11.29;85.92;94754.72;5015060;28;20216;-72
2023/03/22 05:32:28;;;;;;;3.15;2.95;;;;;;;11.37;85.16;94752.69;5015055;28;20309;-73
2023/03/22 05:34:55;;;;;;;2.95;2.78;;;;;;;11.39;85.40;94758.50;5013415;28;20681;-73
2023/03/22 05:37:22;;;;;;;3.28;3.08;;;;;;;11.40;85.01;94756.78;5015408;28;20211;-73
2023/03/22 05:39:48;;;;;;;4.18;3.20;;;;;;;11.42;85.18;94755.84;5014713;28;20298;-73
2023/03/22 05:42:16;;;;;;;3.58;3.28;;;;;;;11.45;85.09;94762.53;5015133;28;20669;-74
2023/03/22 05:44:43;;;;;;;5.72;4.22;;;;;;;11.47;84.62;94759.03;5014529;28;20731;-73
2023/03/22 05:47:10;;;;;;;3.30;3.10;;;;;;;11.58;84.37;94761.97;5014926;28;20238;-72
2023/03/22 05:49:36;;;;;;;3.85;3.65;;;;;;;11.54;84.35;94762.97;5014648;28;20652;-73
2023/03/22 05:52:04;;;;;;;3.97;3.67;;;;;;;11.58;84.40;94771.31;5015284;28;20314;-73
2023/03/22 05:54:31;;;;;;;3.60;3.40;;;;;;;11.55;84.03;94768.91;5013605;28;20217;-72
2023/03/22 05:56:58;;;;;;;3.67;3.47;;;;;;;11.58;84.32;94772.13;5014667;28;20354;-72
2023/03/22 05:59:26;;;;;;;4.30;3.45;;;;;;;11.68;83.52;94775.09;5014669;28;20230;-75
2023/03/22 06:01:53;;;;;;;4.30;4.00;;;;;;;11.70;83.68;94780.13;5014035;28;21180;-75
2023/03/22 06:04:19;;;;;;;3.92;3.65;;;;;;;11.73;83.65;94777.47;5015102;28;20636;-74
2023/03/22 06:06:46;;;;;;;5.95;5.40;;;;;;;11.72;83.58;94778.34;5015397;28;20346;-73
2023/03/22 06:09:14;;;;;;;5.78;5.05;;;;;;;11.74;83.46;94781.66;5015496;28;20274;-74
2023/03/22 06:11:41;;;;;;;6.32;5.93;;;;;;;11.75;83.63;94780.78;5014597;28;20325;-73
2023/03/22 06:14:08;;;;;;;8.75;7.95;;;;;;;11.85;83.47;94785.44;5014185;28;21805;-73
2023/03/22 06:16:36;;;;;;;9.45;7.82;;;;;;;11.88;83.18;94784.47;5014582;28;20207;-73
2023/03/22 06:19:02;;;;;;;13.48;10.95;;;;;;;11.95;83.06;94780.78;5015552;28;20214;-74
2023/03/22 06:21:29;;;;;;;13.60;11.68;;;;;;;12.04;82.64;94789.75;5014610;28;20207;-73
2023/03/22 06:23:56;;;;;;;11.27;10.25;;;;;;;12.13;82.51;94790.16;5014360;28;20265;-74
2023/03/22 06:26:23;;;;;;;9.60;8.52;;;;;;;12.24;81.99;94792.22;5014257;28;20260;-73
2023/03/22 06:28:49;;;;;;;8.93;8.00;;;;;;;12.29;81.17;94792.88;5014464;28;20211;-73
2023/03/22 06:31:16;;;;;;;7.93;7.32;;;;;;;12.36;81.51;94795.97;5014636;28;20211;-74
2023/03/22 06:33:44;;;;;;;4.75;4.45;;;;;;;12.43;81.07;94794.78;5018104;28;20204;-73
2023/03/22 06:36:11;;;;;;;4.60;4.22;;;;;;;12.50;80.13;94794.44;5018586;28;20200;-73
2023/03/22 06:38:38;;;;;;;3.83;3.63;;;;;;;12.42;79.81;94798.22;5017328;28;20204;-74
2023/03/22 06:41:05;;;;;;;3.90;3.70;;;;;;;12.53;79.49;94798.59;5018740;28;20641;-72
2023/03/22 06:43:31;;;;;;;3.65;3.30;;;;;;;12.73;78.73;94803.59;5018972;28;20212;-75
2023/03/22 06:45:58;;;;;;;4.20;3.90;;;;;;;12.95;77.39;94800.88;5017864;28;20931;-72
2023/03/22 06:48:25;;;;;;;4.43;4.05;;;;;;;13.12;77.16;94807.72;5017941;28;20761;-73
2023/03/22 06:50:53;;;;;;;4.20;4.00;;;;;;;13.22;77.18;94799.59;5017781;28;20233;-75
2023/03/22 06:53:19;;;;;;;4.63;4.32;;;;;;;13.35;76.20;94799.03;5018545;28;20215;-72
2023/03/22 06:55:46;;;;;;;5.03;4.53;;;;;;;13.54;74.73;94807.44;5018523;28;20317;-72
2023/03/22 06:58:13;;;;;;;4.88;4.47;;;;;;;13.57;74.86;94800.44;5018654;28;20324;-73
2023/03/22 07:00:40;;;;;;;5.05;4.70;;;;;;;13.65;74.70;94812.00;5017183;28;20204;-73
2023/03/22 07:03:06;;;;;;;5.05;4.65;;;;;;;13.66;74.47;94813.66;5018605;28;20305;-73
2023/03/22 07:05:33;;;;;;;5.32;4.90;;;;;;;13.75;74.16;94813.19;5017644;28;20747;-74
2023/03/22 07:08:01;;;;;;;5.95;5.40;;;;;;;13.85;73.82;94820.34;5018103;28;20337;-74
2023/03/22 07:10:28;;;;;;;5.55;4.90;;;;;;;13.87;73.62;94815.13;5017327;28;20756;-76
2023/03/22 07:12:55;;;;;;;4.50;4.20;;;;;;;13.88;73.13;94819.31;5017042;28;20207;-75
2023/03/22 07:15:23;;;;;;;4.20;4.00;;;;;;;13.90;73.10;94825.19;5017527;28;20673;-74
2023/03/22 07:17:50;;;;;;;4.30;4.10;;;;;;;13.93;72.97;94827.59;5018205;28;20203;-75
2023/03/22 07:20:17;;;;;;;4.50;4.10;;;;;;;13.91;73.40;94826.84;5017192;28;20204;-76
2023/03/22 07:22:44;;;;;;;4.03;3.80;;;;;;;13.88;73.53;94821.88;5017491;28;20211;-75
2023/03/22 07:25:12;;;;;;;4.22;3.92;;;;;;;13.79;73.74;94828.31;5017867;28;20212;-75
2023/03/22 07:27:39;;;;;;;4.28;3.72;;;;;;;13.76;74.35;94835.28;5017742;28;20725;-74
2023/03/22 07:30:07;;;;;;;3.72;3.53;;;;;;;13.75;74.07;94833.63;5017513;28;20216;-76
2023/03/22 07:32:34;;;;;;;4.07;3.35;;;;;;;13.66;73.89;94840.00;5017243;28;20687;-74
2023/03/22 07:35:00;;;;;;;4.57;4.00;;;;;;;13.62;74.19;94833.38;5016254;28;20204;-75
2023/03/22 07:37:27;;;;;;;3.60;3.33;;;;;;;13.66;73.59;94839.19;5017618;28;20291;-74
2023/03/22 07:39:54;;;;;;;4.10;3.72;;;;;;;13.56;72.71;94839.66;5011272;28;20302;-75
2023/03/22 07:42:22;;;;;;;4.05;3.75;;;;;;;13.48;73.20;94841.72;5017339;28;20293;-74
2023/03/22 07:44:49;;;;;;;3.92;3.72;;;;;;;13.36;73.44;94851.72;5016926;28;20282;-74
2023/03/22 07:47:16;;;;;;;3.53;3.33;;;;;;;13.17;74.03;94851.75;5016597;28;20821;-76
2023/03/22 07:49:42;;;;;;;4.38;4.18;;;;;;;13.08;74.15;94857.25;5016835;28;20208;-76
2023/03/22 07:52:09;;;;;;;4.15;3.85;;;;;;;13.07;74.72;94850.50;5016523;28;20776;-75
2023/03/22 07:54:36;;;;;;;4.20;3.85;;;;;;;13.01;75.71;94853.34;5016115;28;20227;-74
2023/03/22 07:57:03;;;;;;;4.45;4.25;;;;;;;12.90;76.24;94849.53;5016875;28;20284;-75
2023/03/22 07:59:31;;;;;;;4.20;3.70;;;;;;;12.88;76.71;94856.44;5016440;28;20257;-75
2023/03/22 08:01:57;;;;;;;4.32;4.03;;;;;;;12.89;76.50;94858.09;5016481;28;20227;-72
2023/03/22 08:04:24;;;;;;;5.65;5.07;;;;;;;12.98;77.06;94856.03;5016734;28;20378;-74
2023/03/22 08:06:53;;;;;;;4.47;4.15;;;;;;;13.04;77.75;94858.28;5016292;28;20329;-73
2023/03/22 08:09:20;;;;;;;4.95;4.50;;;;;;;13.05;77.50;94854.84;5016541;28;20592;-74
2023/03/22 08:11:47;;;;;;;4.78;4.47;;;;;;;13.01;77.74;94861.81;5015780;28;20312;-75
2023/03/22 08:14:13;;;;;;;4.57;4.18;;;;;;;12.99;77.57;94860.22;5015994;28;20204;-75
2023/03/22 08:16:42;;;;;;;5.65;5.25;;;;;;;13.05;77.49;94857.41;5016193;28;20291;-74
2023/03/22 08:19:09;;;;;;;5.45;5.07;;;;;;;13.04;77.21;94863.41;5017036;28;20203;-73
2023/03/22 08:21:36;;;;;;;5.82;5.43;;;;;;;13.06;77.39;94859.06;5016779;28;20745;-74
2023/03/22 08:24:03;;;;;;;6.95;6.25;;;;;;;12.87;77.55;94862.44;5016205;28;21668;-75
2023/03/22 08:26:30;;;;;;;6.65;6.13;;;;;;;12.87;77.73;94857.31;5016286;28;20263;-74
2023/03/22 08:28:57;;;;;;;5.63;5.22;;;;;;;12.98;77.73;94871.31;5016209;28;20235;-76
2023/03/22 08:31:23;;;;;;;5.20;4.80;;;;;;;12.96;78.09;94871.41;5015600;28;20207;-74
2023/03/22 08:33:51;;;;;;;5.60;5.05;;;;;;;12.98;77.77;94871.31;5015448;28;20310;-75
2023/03/22 08:36:22;;;;;;;5.03;4.63;;;;;;;12.97;77.89;94874.78;5016508;28;20867;-77
2023/03/22 08:38:49;;;;;;;4.72;4.35;;;;;;;12.92;77.80;94872.44;5016482;28;20211;-77
2023/03/22 08:41:16;;;;;;;4.07;3.88;;;;;;;12.95;78.23;94869.72;5015669;28;20211;-74
2023/03/22 08:43:43;;;;;;;4.30;4.10;;;;;;;13.05;78.21;94878.63;5016200;28;20269;-76
2023/03/22 08:46:09;;;;;;;4.63;4.32;;;;;;;13.11;77.99;94874.97;5014128;28;20234;-73
2023/03/22 08:48:36;;;;;;;5.10;4.53;;;;;;;13.19;78.21;94880.56;5015185;28;20314;-75
2023/03/22 08:51:05;;;;;;;5.22;4.93;;;;;;;13.36;76.51;94877.25;5016732;28;20214;-75
2023/03/22 08:53:32;;;;;;;5.18;4.00;;;;;;;13.21;77.75;94882.16;5015833;28;20200;-75
2023/03/22 08:56:00;;;;;;;5.25;4.75;;;;;;;13.25;77.90;94880.28;5015130;28;20319;-75
2023/03/22 08:58:27;;;;;;;4.07;3.75;;;;;;;13.31;76.96;94879.19;5016517;28;20685;-74
2023/03/22 09:00:54;;;;;;;4.13;3.65;;;;;;;13.33;76.91;94885.03;5015642;28;20235;-74
2023/03/22 09:03:22;;;;;;;4.07;3.88;;;;;;;13.36;76.49;94878.06;5015474;28;20290;-75
2023/03/22 09:05:49;;;;;;;5.22;3.38;;;;;;;13.37;76.77;94879.69;5016253;28;20238;-76
2023/03/22 09:08:17;;;;;;;3.75;3.42;;;;;;;13.38;75.19;94880.53;5015886;28;20317;-73
2023/03/22 09:10:46;;;;;;;3.42;3.00;;;;;;;13.42;75.30;94889.69;5015837;28;20463;-76
2023/03/22 09:13:15;;;;;;;4.18;3.80;;;;;;;13.31;75.22;94874.91;5015330;28;20208;-74
2023/03/22 09:15:43;;;;;;;4.53;4.10;;;;;;;13.33;75.86;94893.53;5015857;28;20296;-75
2023/03/22 09:18:10;;;;;;;4.10;3.80;;;;;;;13.25;76.00;94877.72;5014758;28;20231;-74
2023/03/22 09:20:37;;;;;;;4.78;4.47;;;;;;;13.23;76.03;94892.28;5015415;28;20370;-74
2023/03/22 09:23:04;;;;;;;3.70;3.47;;;;;;;13.26;76.04;94892.16;5015060;28;20635;-73
2023/03/22 09:25:33;;;;;;;3.60;3.40;;;;;;;13.22;76.83;94898.28;5017345;28;20294;-72
2023/03/22 09:27:59;;;;;;;3.58;3.28;;;;;;;13.40;75.30;94894.03;5017234;28;20289;-74
2023/03/22 09:30:27;;;;;;;4.07;2.80;;;;;;;13.46;74.48;94897.13;5015563;28;20354;-74
2023/03/22 09:32:54;;;;;;;3.63;3.40;;;;;;;13.30;75.11;94893.66;5015382;28;20214;-72
2023/03/22 09:35:21;;;;;;;4.50;4.20;;;;;;;13.16;75.47;94896.00;5016179;28;20291;-74
2023/03/22 09:37:52;;;;;;;8.55;6.13;;;;;;;13.17;75.39;94887.47;5014794;28;20203;-73
2023/03/22 09:40:18;;;;;;;5.32;4.82;;;;;;;13.26;75.46;94887.03;5016331;28;20202;-73
2023/03/22 09:42:50;;;;;;;4.18;3.97;;;;;;;13.14;75.61;94895.22;5015359;28;20432;-75
2023/03/22 09:45:19;;;;;;;4.90;4.50;;;;;;;13.09;75.85;94889.53;5015193;28;20840;-73
2023/03/22 09:47:48;;;;;;;5.00;4.60;;;;;;;13.15;75.85;94884.13;5014652;28;21817;-74
2023/03/22 09:50:19;;;;;;;4.47;4.18;;;;;;;13.20;76.39;94889.88;5014875;28;22132;-76
2023/03/22 09:52:46;;;;;;;4.10;3.90;;;;;;;13.35;76.04;94885.78;5015300;28;20207;-76
2023/03/22 09:55:19;;;;;;;4.30;3.92;;;;;;;13.56;75.14;94892.44;5014931;28;20227;-73
2023/03/22 09:57:56;;;;;;;3.85;3.65;;;;;;;13.73;74.99;94896.72;5014051;28;20681;-75
2023/03/22 10:00:32;;;;;;;4.65;4.25;;;;;;;13.81;74.46;94879.31;5015620;28;20747;-74
2023/03/22 10:03:07;;;;;;;5.07;3.80;;;;;;;14.03;73.49;94895.22;5014953;28;20321;-76
2023/03/22 10:05:39;;;;;;;5.15;4.65;;;;;;;14.16;72.64;94898.81;5014576;28;20206;-74
2023/03/22 10:08:23;;;;;;;18.77;10.23;;;;;;;14.13;72.33;94895.56;5019326;28;20246;-71
2023/03/22 10:10:51;;;;;;;26.35;11.70;;;;;;;14.15;73.03;94899.72;5019322;28;20238;-74
2023/03/22 10:13:27;;;;;;;11.68;7.57;;;;;;;14.18;73.10;94899.56;5019020;28;20207;-75
2023/03/22 10:15:57;;;;;;;6.85;4.80;;;;;;;14.11;72.45;94903.31;5018833;28;20210;-75
2023/03/22 10:18:28;;;;;;;5.78;5.28;;;;;;;13.99;73.11;94901.38;5017235;28;20760;-74
2023/03/22 10:21:00;;;;;;;5.10;4.60;;;;;;;13.97;73.27;94903.19;5016824;28;20203;-79
2023/03/22 10:23:32;;;;;;;4.15;3.50;;;;;;;13.89;72.75;94900.16;5016111;28;20261;-72
2023/03/22 10:26:01;;;;;;;4.25;3.85;;;;;;;13.71;73.55;94903.63;5017627;28;20674;-74
2023/03/22 10:28:37;;;;;;;3.42;3.22;;;;;;;13.61;73.76;94906.59;5015770;28;20231;-78
2023/03/22 10:31:04;;;;;;;5.25;4.13;;;;;;;13.67;73.78;94904.66;5016581;28;20203;-77
2023/03/22 10:33:37;;;;;;;4.65;4.32;;;;;;;13.79;73.35;94911.75;5017985;28;20294;-73
2023/03/22 10:36:08;;;;;;;6.38;5.72;;;;;;;13.76;73.00;94891.47;5016584;28;20275;-72
2023/03/22 10:38:41;;;;;;;6.20;5.20;;;;;;;13.75;72.81;94907.69;5016297;28;20196;-76
2023/03/22 10:41:08;;;;;;;5.18;4.85;;;;;;;13.55;72.98;94904.38;5016744;28;20204;-74
2023/03/22 10:43:38;;;;;;;7.95;5.70;;;;;;;13.58;72.79;94899.13;5017318;28;20231;-74
2023/03/22 10:46:12;;;;;;;6.63;6.15;;;;;;;13.52;73.08;94904.50;5017372;28;20338;-76
2023/03/22 10:48:42;;;;;;;9.10;8.18;;;;;;;13.47;73.48;94896.25;5017646;28;20228;-73
2023/03/22 10:51:18;;;;;;;6.78;6.28;;;;;;;13.41;74.51;94891.41;5018194;28;20215;-75
2023/03/22 10:53:47;;;;;;;6.88;6.18;;;;;;;13.48;73.57;94895.34;5016687;28;20215;-76
2023/03/22 10:56:17;;;;;;;6.70;6.10;;;;;;;13.46;73.94;94894.59;5017695;28;20211;-76
2023/03/22 10:58:47;;;;;;;5.75;5.25;;;;;;;13.41;73.64;94893.97;5016629;28;20759;-75
2023/03/22 11:01:15;;;;;;;5.32;4.93;;;;;;;13.38;73.75;94899.22;5018543;28;20292;-76
2023/03/22 11:03:43;;;;;;;6.25;5.65;;;;;;;13.39;73.90;94898.31;5017691;28;20298;-76
2023/03/22 11:06:13;;;;;;;9.55;7.30;;;;;;;13.40;73.81;94894.88;5017694;28;20215;-76
2023/03/22 11:08:46;;;;;;;10.48;8.45;;;;;;;13.47;74.02;94893.69;5017578;28;20287;-73
2023/03/22 11:11:23;;;;;;;6.00;5.50;;;;;;;13.58;73.64;94894.03;5017586;28;20602;-73
2023/03/22 11:14:00;;;;;;;34.20;15.75;;;;;;;13.59;73.52;94898.22;5017735;28;20301;-76
2023/03/22 11:16:27;;;;;;;25.13;13.75;;;;;;;13.53;74.06;94901.06;5017271;28;20800;-76
2023/03/22 11:18:55;;;;;;;10.95;7.32;;;;;;;13.41;74.89;94886.31;5016889;28;20659;-76
2023/03/22 11:21:28;;;;;;;10.50;6.65;;;;;;;13.41;75.12;94888.88;5017447;28;20699;-77
2023/03/22 11:23:59;;;;;;;5.30;4.90;;;;;;;13.43;75.36;94889.63;5018065;28;20207;-77
2023/03/22 11:26:29;;;;;;;6.65;5.50;;;;;;;13.43;75.17;94889.63;5017238;28;20731;-76
2023/03/22 11:29:06;;;;;;;5.88;5.38;;;;;;;13.45;75.19;94884.44;5017214;28;20308;-77
2023/03/22 11:31:53;;;;;;;8.73;5.50;;;;;;;13.48;74.98;94882.56;5016392;28;20210;-79
2023/03/22 11:34:21;;;;;;;5.18;4.88;;;;;;;13.48;74.82;94887.69;5016759;28;20302;-76
2023/03/22 11:36:55;;;;;;;5.93;5.43;;;;;;;13.71;74.53;94872.97;5017249;28;20236;-76
2023/03/22 11:39:22;;;;;;;4.70;4.30;;;;;;;13.82;74.25;94880.97;5017185;28;20279;-77
2023/03/22 11:41:49;;;;;;;4.90;4.50;;;;;;;13.84;74.12;94882.53;5016725;28;20240;-76